Thomasville, Missouri
Current Conditions -  °F | °C
As of 2:53 PM on Wednesday 17 Dec 2014 (Local Time) from KUNO Reporting Station
Overcast Overcast  
Wind Chill: 40°   Ceiling: 10000
Heat Index: 40°   Visibility: 10mi
Dew Point: 25°   Wind: 3mph
Humidity: 55%   Direction: 20°NNE
Pressure: 30.23"   Gusts: NA
Location:  36.9122°N, 91.496°W
Report Text: KUNO 172053Z AUTO 02003KT 10SM OVC100 04/M04 A3023 RMK AO2 SLP246 T00441039 56019
Loading
Personal Weather Stations






























Interactive Weather Map New forecast layout! Learn more

10-Day Weather Forecast

Advertisements
Track Severe Weather on mobile